Time;durP1;ratioP1;P1;durP2;ratioP2;P2;SDS_P1;SDS_P2;PMS_P1;PMS_P2;Temp;Humidity;BMP_temperature;BMP_pressure;BME280_temperature;BME280_humidity;BME280_pressure;Samples;Min_cycle;Max_cycle;Signal;HPM_P1;HPM_P2
2023/06/10 00:01:37;;;;;;;;;;;22.50;47.30;;;;;;5004624;28;19972;-62
2023/06/10 00:04:05;;;;;;;;;;;22.50;47.20;;;;;;5002195;28;19945;-60
2023/06/10 00:06:35;;;;;;;;;;;22.50;47.20;;;;;;5003301;28;19968;-60
2023/06/10 00:09:04;;;;;;;;;;;22.50;47.20;;;;;;5006233;28;20319;-62
2023/06/10 00:11:32;;;;;;;;;;;22.50;47.20;;;;;;5004028;28;19972;-61
2023/06/10 00:13:59;;;;;;;;;;;22.50;47.20;;;;;;5020488;28;20256;-61
2023/06/10 00:16:26;;;;;;;;;;;22.50;47.20;;;;;;5002151;28;19987;-60
2023/06/10 00:18:52;;;;;;;;;;;22.50;47.30;;;;;;5001186;28;19922;-62
2023/06/10 00:21:20;;;;;;;;;;;22.50;47.30;;;;;;5008104;28;20036;-61
2023/06/10 00:23:47;;;;;;;;;;;22.50;47.20;;;;;;5003599;28;19921;-59
2023/06/10 00:26:13;;;;;;;;;;;22.40;47.20;;;;;;5005139;28;19922;-60
2023/06/10 00:28:41;;;;;;;;;;;22.40;47.20;;;;;;5004861;28;20005;-60
2023/06/10 00:31:10;;;;;;;;;;;22.40;47.10;;;;;;5003684;28;20362;-62
2023/06/10 00:33:37;;;;;;;;;;;22.40;47.10;;;;;;5009172;28;19948;-62
2023/06/10 00:36:04;;;;;;;;;;;22.40;47.20;;;;;;5005424;28;19927;-61
2023/06/10 00:38:31;;;;;;;;;;;22.40;47.10;;;;;;5006000;28;19922;-62
2023/06/10 00:40:58;;;;;;;;;;;22.40;47.10;;;;;;5003278;28;19929;-62
2023/06/10 00:43:25;;;;;;;;;;;22.40;47.00;;;;;;5008768;28;20451;-61
2023/06/10 00:45:53;;;;;;;;;;;22.40;47.00;;;;;;5005939;28;19987;-61
2023/06/10 00:48:20;;;;;;;;;;;22.40;47.00;;;;;;5006023;28;20016;-63
2023/06/10 00:50:47;;;;;;;;;;;22.40;47.00;;;;;;5020349;28;20394;-61
2023/06/10 00:53:14;;;;;;;;;;;22.40;47.00;;;;;;5009052;28;19980;-60
2023/06/10 00:55:41;;;;;;;;;;;22.40;46.90;;;;;;5010612;28;19926;-60
2023/06/10 00:58:08;;;;;;;;;;;22.40;46.90;;;;;;5009839;28;19977;-60
2023/06/10 01:00:35;;;;;;;;;;;22.40;46.90;;;;;;5007783;28;19932;-62
2023/06/10 01:03:07;;;;;;;;;;;22.40;46.90;;;;;;5022841;28;19926;-62
2023/06/10 01:05:34;;;;;;;;;;;22.30;46.70;;;;;;5010970;28;19926;-61
2023/06/10 01:08:02;;;;;;;;;;;22.40;46.90;;;;;;5005282;28;19963;-62
2023/06/10 01:10:30;;;;;;;;;;;22.40;46.80;;;;;;5008701;28;19929;-61
2023/06/10 01:13:02;;;;;;;;;;;22.40;46.80;;;;;;5007351;28;20004;-61
2023/06/10 01:15:29;;;;;;;;;;;22.40;46.80;;;;;;5008651;28;19927;-62
2023/06/10 01:17:57;;;;;;;;;;;22.30;46.70;;;;;;5008056;28;19929;-61
2023/06/10 01:20:26;;;;;;;;;;;22.30;46.70;;;;;;5005281;28;19922;-59
2023/06/10 01:22:55;;;;;;;;;;;22.30;46.70;;;;;;5005930;28;19922;-60
2023/06/10 01:25:27;;;;;;;;;;;22.30;46.60;;;;;;5027127;28;19953;-61
2023/06/10 01:27:54;;;;;;;;;;;22.30;46.60;;;;;;5008264;28;20390;-61
2023/06/10 01:30:22;;;;;;;;;;;22.30;46.60;;;;;;5008980;28;20020;-62
2023/06/10 01:32:49;;;;;;;;;;;22.30;46.60;;;;;;5007437;28;20384;-59
2023/06/10 01:35:15;;;;;;;;;;;22.30;46.50;;;;;;5009647;28;19922;-62
2023/06/10 01:37:42;;;;;;;;;;;22.30;46.50;;;;;;5023139;28;19922;-61
2023/06/10 01:40:11;;;;;;;;;;;22.30;46.50;;;;;;5011511;28;19922;-62
2023/06/10 01:42:38;;;;;;;;;;;22.30;46.40;;;;;;5009106;28;19929;-60
2023/06/10 01:45:05;;;;;;;;;;;22.30;46.50;;;;;;5027090;28;19926;-61
2023/06/10 01:47:32;;;;;;;;;;;22.30;46.40;;;;;;5008995;28;19921;-62
2023/06/10 01:49:58;;;;;;;;;;;22.30;46.40;;;;;;5009562;28;19933;-62
2023/06/10 01:52:25;;;;;;;;;;;22.30;46.40;;;;;;5006143;28;19922;-62
2023/06/10 01:54:52;;;;;;;;;;;22.30;46.30;;;;;;5009071;28;19921;-63
2023/06/10 01:57:21;;;;;;;;;;;22.30;46.30;;;;;;5007491;28;19929;-62
2023/06/10 01:59:47;;;;;;;;;;;22.20;46.20;;;;;;5007490;28;19929;-62
2023/06/10 02:02:14;;;;;;;;;;;22.20;46.10;;;;;;5007516;28;19925;-62
2023/06/10 02:04:41;;;;;;;;;;;22.20;46.10;;;;;;5006972;28;19975;-62
2023/06/10 02:07:08;;;;;;;;;;;22.20;46.10;;;;;;5005374;28;19979;-63
2023/06/10 02:09:36;;;;;;;;;;;22.20;46.10;;;;;;5007607;28;19921;-61
2023/06/10 02:12:03;;;;;;;;;;;22.20;46.10;;;;;;5024002;28;19941;-60
2023/06/10 02:14:32;;;;;;;;;;;22.20;46.00;;;;;;5004866;28;20272;-61
2023/06/10 02:16:59;;;;;;;;;;;22.20;46.00;;;;;;5009158;28;19926;-59
2023/06/10 02:19:26;;;;;;;;;;;22.20;46.00;;;;;;5020814;28;19933;-60
2023/06/10 02:21:53;;;;;;;;;;;22.20;46.00;;;;;;5008714;28;19968;-61
2023/06/10 02:24:20;;;;;;;;;;;22.20;46.00;;;;;;5006614;28;19925;-62
2023/06/10 02:26:47;;;;;;;;;;;22.20;46.00;;;;;;5004652;28;20168;-60
2023/06/10 02:29:14;;;;;;;;;;;22.20;45.90;;;;;;5008979;28;20029;-61
2023/06/10 02:31:43;;;;;;;;;;;22.20;45.90;;;;;;5006899;28;19995;-60
2023/06/10 02:34:10;;;;;;;;;;;22.20;45.90;;;;;;5006364;28;19921;-60
2023/06/10 02:36:36;;;;;;;;;;;22.20;45.80;;;;;;5005270;28;19929;-62
2023/06/10 02:39:04;;;;;;;;;;;22.20;45.80;;;;;;5005464;28;19929;-60
2023/06/10 02:41:31;;;;;;;;;;;22.20;45.80;;;;;;5006698;28;20394;-60
2023/06/10 02:43:57;;;;;;;;;;;22.10;45.70;;;;;;5006980;28;19921;-62
2023/06/10 02:46:24;;;;;;;;;;;22.10;45.80;;;;;;5009074;28;19921;-60
2023/06/10 02:48:53;;;;;;;;;;;22.10;45.70;;;;;;5003196;28;19984;-61
2023/06/10 02:51:20;;;;;;;;;;;22.10;45.70;;;;;;5008215;28;19937;-60
2023/06/10 02:53:47;;;;;;;;;;;22.10;45.70;;;;;;5000212;28;19977;-60
2023/06/10 02:56:14;;;;;;;;;;;22.10;45.60;;;;;;5007064;28;19921;-61
2023/06/10 02:58:42;;;;;;;;;;;22.10;45.60;;;;;;5007880;28;19922;-61
2023/06/10 03:01:09;;;;;;;;;;;22.10;45.60;;;;;;5003008;28;19933;-62
2023/06/10 03:03:36;;;;;;;;;;;22.10;45.60;;;;;;5008389;28;19963;-60
2023/06/10 03:06:04;;;;;;;;;;;22.10;45.60;;;;;;5005604;28;19926;-62
2023/06/10 03:08:31;;;;;;;;;;;22.10;45.50;;;;;;5005373;28;19921;-61
2023/06/10 03:10:58;;;;;;;;;;;22.10;45.50;;;;;;5004074;28;19925;-61
2023/06/10 03:13:25;;;;;;;;;;;22.10;45.50;;;;;;5004178;28;19929;-61
2023/06/10 03:15:52;;;;;;;;;;;22.10;45.50;;;;;;5006933;28;19921;-59
2023/06/10 03:18:18;;;;;;;;;;;22.10;45.40;;;;;;5007410;28;19932;-61
2023/06/10 03:20:45;;;;;;;;;;;22.10;45.40;;;;;;5006906;28;19925;-61
2023/06/10 03:23:13;;;;;;;;;;;22.10;45.40;;;;;;5024587;28;19967;-61
2023/06/10 03:25:47;;;;;;;;;;;22.10;45.40;;;;;;5009964;28;19937;-60
2023/06/10 03:28:14;;;;;;;;;;;22.10;45.40;;;;;;5008237;28;19929;-60
2023/06/10 03:30:40;;;;;;;;;;;22.10;45.40;;;;;;5003125;28;19980;-61
2023/06/10 03:33:07;;;;;;;;;;;22.10;45.40;;;;;;5004743;28;19932;-62
2023/06/10 03:35:34;;;;;;;;;;;22.10;45.40;;;;;;5009457;28;19922;-61
2023/06/10 03:38:01;;;;;;;;;;;22.10;45.40;;;;;;5007084;28;19995;-60
2023/06/10 03:40:30;;;;;;;;;;;22.10;45.40;;;;;;5007010;28;19922;-60
2023/06/10 03:42:57;;;;;;;;;;;22.00;45.30;;;;;;5005683;28;19922;-61
2023/06/10 03:45:24;;;;;;;;;;;22.10;45.40;;;;;;5008305;28;19944;-57
2023/06/10 03:47:51;;;;;;;;;;;22.00;45.20;;;;;;5007616;28;19949;-61
2023/06/10 03:50:17;;;;;;;;;;;22.00;45.20;;;;;;5008598;28;20249;-62
2023/06/10 03:52:45;;;;;;;;;;;22.00;45.20;;;;;;5004702;28;19933;-60
2023/06/10 03:55:13;;;;;;;;;;;22.00;45.20;;;;;;5008603;28;19922;-62
2023/06/10 03:57:41;;;;;;;;;;;22.00;45.20;;;;;;5008698;28;19936;-62
2023/06/10 04:00:11;;;;;;;;;;;22.00;45.20;;;;;;5011449;28;20383;-60
2023/06/10 04:02:41;;;;;;;;;;;22.00;45.20;;;;;;5005082;28;19934;-61
2023/06/10 04:05:08;;;;;;;;;;;22.00;45.20;;;;;;5007101;28;19964;-62
2023/06/10 04:07:35;;;;;;;;;;;22.00;45.20;;;;;;5010460;28;19928;-62
2023/06/10 04:10:02;;;;;;;;;;;22.00;45.20;;;;;;5010859;28;19929;-62
2023/06/10 04:12:32;;;;;;;;;;;22.00;45.20;;;;;;5025643;28;19929;-60
2023/06/10 04:15:00;;;;;;;;;;;22.00;45.20;;;;;;5007085;28;19921;-61
2023/06/10 04:17:27;;;;;;;;;;;22.00;45.20;;;;;;5004950;28;19930;-62
2023/06/10 04:19:55;;;;;;;;;;;22.00;45.20;;;;;;5004087;28;19960;-61
2023/06/10 04:22:23;;;;;;;;;;;22.00;45.20;;;;;;5003965;28;19956;-62
2023/06/10 04:24:49;;;;;;;;;;;22.00;45.20;;;;;;5007660;28;19976;-60
2023/06/10 04:27:16;;;;;;;;;;;22.00;45.20;;;;;;5010392;28;19925;-60
2023/06/10 04:29:43;;;;;;;;;;;22.00;45.20;;;;;;5010542;28;19934;-61
2023/06/10 04:32:11;;;;;;;;;;;22.00;45.30;;;;;;5012685;28;19921;-61
2023/06/10 04:34:38;;;;;;;;;;;22.00;45.20;;;;;;5005996;28;19921;-60
2023/06/10 04:37:05;;;;;;;;;;;22.00;45.20;;;;;;5008992;28;19929;-60
2023/06/10 04:39:32;;;;;;;;;;;22.00;45.30;;;;;;5010595;28;19928;-62
2023/06/10 04:41:59;;;;;;;;;;;22.00;45.30;;;;;;5005365;28;20032;-61
2023/06/10 04:44:26;;;;;;;;;;;22.00;45.30;;;;;;5008340;28;19921;-59
2023/06/10 04:46:53;;;;;;;;;;;22.00;45.30;;;;;;5009035;28;20260;-62
2023/06/10 04:49:21;;;;;;;;;;;22.00;45.30;;;;;;5006276;28;20301;-60
2023/06/10 04:51:48;;;;;;;;;;;22.00;45.30;;;;;;5005931;28;19922;-60
2023/06/10 04:54:15;;;;;;;;;;;22.00;45.40;;;;;;5008749;28;19976;-60
2023/06/10 04:56:42;;;;;;;;;;;22.00;45.30;;;;;;5024377;28;19931;-62
2023/06/10 04:59:09;;;;;;;;;;;22.00;45.40;;;;;;5006812;28;19933;-60
2023/06/10 05:01:36;;;;;;;;;;;22.00;45.40;;;;;;5005698;28;19932;-61
2023/06/10 05:04:04;;;;;;;;;;;22.00;45.40;;;;;;5005101;28;19922;-61
2023/06/10 05:06:32;;;;;;;;;;;22.00;45.40;;;;;;5004336;28;19925;-62
2023/06/10 05:08:59;;;;;;;;;;;22.00;45.40;;;;;;5002461;28;19944;-60
2023/06/10 05:11:26;;;;;;;;;;;22.00;45.40;;;;;;5005013;28;19922;-62
2023/06/10 05:13:52;;;;;;;;;;;22.00;45.40;;;;;;5007809;28;19921;-61
2023/06/10 05:16:19;;;;;;;;;;;22.00;45.40;;;;;;5005245;28;19925;-61
2023/06/10 05:18:46;;;;;;;;;;;22.00;45.50;;;;;;5002283;28;19958;-59
2023/06/10 05:21:13;;;;;;;;;;;22.00;45.50;;;;;;5008043;28;19944;-60
2023/06/10 05:23:41;;;;;;;;;;;22.00;45.50;;;;;;5008061;28;19922;-62
2023/06/10 05:26:08;;;;;;;;;;;22.00;45.50;;;;;;5005616;28;19952;-60
2023/06/10 05:28:35;;;;;;;;;;;22.00;45.50;;;;;;5002331;28;19925;-61
2023/06/10 05:31:01;;;;;;;;;;;22.00;45.50;;;;;;5007954;28;19948;-61
2023/06/10 05:33:28;;;;;;;;;;;21.90;45.50;;;;;;5004818;28;19929;-61
2023/06/10 05:35:55;;;;;;;;;;;22.00;45.60;;;;;;5007782;28;19925;-62
2023/06/10 05:38:22;;;;;;;;;;;22.00;45.60;;;;;;5007597;28;19925;-61
2023/06/10 05:40:51;;;;;;;;;;;22.00;45.60;;;;;;5006715;28;19933;-61
2023/06/10 05:43:17;;;;;;;;;;;22.00;45.60;;;;;;5005243;28;20036;-61
2023/06/10 05:45:44;;;;;;;;;;;22.00;45.70;;;;;;5009707;28;19926;-62
2023/06/10 05:48:11;;;;;;;;;;;22.00;45.70;;;;;;5007438;28;19933;-62
2023/06/10 05:50:39;;;;;;;;;;;22.00;45.70;;;;;;5004628;28;19922;-62
2023/06/10 05:53:14;;;;;;;;;;;22.00;45.70;;;;;;5002955;28;19922;-60
2023/06/10 05:55:41;;;;;;;;;;;22.00;45.70;;;;;;5003965;28;19974;-61
2023/06/10 05:58:09;;;;;;;;;;;22.00;45.80;;;;;;5003927;28;19921;-61
2023/06/10 06:00:36;;;;;;;;;;;22.00;45.80;;;;;;5003511;28;19921;-61
2023/06/10 06:03:03;;;;;;;;;;;22.00;45.80;;;;;;5009467;28;19921;-61
2023/06/10 06:05:34;;;;;;;;;;;22.00;45.80;;;;;;5004707;28;20046;-61
2023/06/10 06:08:01;;;;;;;;;;;21.90;45.70;;;;;;5002003;28;20372;-61
2023/06/10 06:10:28;;;;;;;;;;;21.90;45.70;;;;;;5003233;28;19932;-61
2023/06/10 06:12:54;;;;;;;;;;;22.00;45.80;;;;;;5004394;28;19933;-62
2023/06/10 06:15:22;;;;;;;;;;;22.00;45.90;;;;;;5008401;28;19925;-62
2023/06/10 06:17:52;;;;;;;;;;;21.90;45.80;;;;;;5007306;28;19921;-61
2023/06/10 06:20:19;;;;;;;;;;;21.90;45.80;;;;;;5012623;28;19928;-62
2023/06/10 06:22:45;;;;;;;;;;;22.00;45.90;;;;;;5014940;28;19922;-62
2023/06/10 06:25:12;;;;;;;;;;;22.00;45.80;;;;;;5008046;28;19925;-61
2023/06/10 06:27:39;;;;;;;;;;;22.00;45.80;;;;;;5005611;28;19922;-60
2023/06/10 06:30:06;;;;;;;;;;;22.00;45.90;;;;;;5009057;28;19925;-60
2023/06/10 06:32:34;;;;;;;;;;;22.00;45.90;;;;;;5003674;28;19921;-62
2023/06/10 06:35:01;;;;;;;;;;;22.00;45.90;;;;;;5004452;28;19988;-62
2023/06/10 06:37:28;;;;;;;;;;;22.00;45.90;;;;;;5019336;28;19921;-59
2023/06/10 06:39:55;;;;;;;;;;;22.00;45.90;;;;;;5011658;28;20350;-59
2023/06/10 06:42:21;;;;;;;;;;;22.00;45.90;;;;;;5012402;28;19933;-61
2023/06/10 06:44:49;;;;;;;;;;;22.00;45.90;;;;;;5007800;28;20399;-61
2023/06/10 06:47:17;;;;;;;;;;;22.00;45.90;;;;;;4990786;28;19925;-62
2023/06/10 06:49:45;;;;;;;;;;;22.00;45.90;;;;;;4990225;28;19946;-60
2023/06/10 06:52:12;;;;;;;;;;;22.00;45.90;;;;;;5000545;28;19926;-60
2023/06/10 06:54:39;;;;;;;;;;;22.00;45.90;;;;;;5006217;28;19921;-61
2023/06/10 06:57:06;;;;;;;;;;;22.00;45.90;;;;;;5002552;28;19926;-60
2023/06/10 06:59:33;;;;;;;;;;;22.00;45.90;;;;;;5007285;28;19925;-60
2023/06/10 07:02:00;;;;;;;;;;;22.00;45.90;;;;;;5010456;28;19925;-60
2023/06/10 07:04:27;;;;;;;;;;;22.00;45.90;;;;;;5003932;28;19931;-61
2023/06/10 07:06:55;;;;;;;;;;;22.00;45.90;;;;;;5006009;28;19922;-61
2023/06/10 07:09:22;;;;;;;;;;;22.00;45.90;;;;;;5009062;28;19945;-61
2023/06/10 07:11:49;;;;;;;;;;;22.00;45.90;;;;;;5009998;28;19921;-61
2023/06/10 07:14:16;;;;;;;;;;;22.00;45.90;;;;;;5007237;28;19921;-60
2023/06/10 07:16:45;;;;;;;;;;;22.00;45.90;;;;;;5011461;28;19921;-60
2023/06/10 07:19:11;;;;;;;;;;;22.00;45.90;;;;;;5007276;28;19933;-61
2023/06/10 07:21:38;;;;;;;;;;;22.00;45.90;;;;;;4998281;28;19937;-61
2023/06/10 07:24:07;;;;;;;;;;;22.00;45.90;;;;;;5000267;28;19932;-61
2023/06/10 07:26:34;;;;;;;;;;;22.00;45.90;;;;;;5003327;28;19997;-60
2023/06/10 07:29:01;;;;;;;;;;;22.00;45.90;;;;;;5008750;28;19969;-61
2023/06/10 07:31:27;;;;;;;;;;;22.10;46.00;;;;;;5003299;28;19922;-60
2023/06/10 07:33:54;;;;;;;;;;;22.00;45.90;;;;;;5006209;28;19925;-61
2023/06/10 07:36:21;;;;;;;;;;;22.10;46.00;;;;;;5009896;28;19936;-60
2023/06/10 07:38:48;;;;;;;;;;;22.10;46.00;;;;;;5009464;28;20066;-58
2023/06/10 07:41:17;;;;;;;;;;;22.10;46.00;;;;;;5002298;28;19983;-60
2023/06/10 07:43:44;;;;;;;;;;;22.10;46.00;;;;;;5004703;28;19929;-61
2023/06/10 07:46:11;;;;;;;;;;;22.00;45.90;;;;;;5005721;28;19936;-60
2023/06/10 07:48:37;;;;;;;;;;;22.10;46.00;;;;;;5003961;28;19926;-61
2023/06/10 07:51:05;;;;;;;;;;;22.10;46.10;;;;;;5001177;28;19929;-61
2023/06/10 07:53:31;;;;;;;;;;;22.10;46.00;;;;;;4993713;28;19933;-61
2023/06/10 07:55:58;;;;;;;;;;;22.10;46.10;;;;;;5006914;28;19929;-60
2023/06/10 07:58:27;;;;;;;;;;;22.10;46.10;;;;;;5005997;28;19964;-61
2023/06/10 08:00:54;;;;;;;;;;;22.10;46.10;;;;;;5009144;28;20351;-61
2023/06/10 08:03:20;;;;;;;;;;;22.10;46.10;;;;;;5007458;28;19928;-63
2023/06/10 08:05:47;;;;;;;;;;;22.10;46.20;;;;;;5011942;28;19922;-61
2023/06/10 08:08:14;;;;;;;;;;;22.10;46.20;;;;;;5009869;28;19971;-63
2023/06/10 08:10:41;;;;;;;;;;;22.10;46.20;;;;;;5006840;28;19949;-61
2023/06/10 08:13:08;;;;;;;;;;;22.10;46.40;;;;;;5007905;28;20024;-62
2023/06/10 08:15:37;;;;;;;;;;;22.10;46.50;;;;;;5008508;28;19921;-61
2023/06/10 08:18:05;;;;;;;;;;;22.10;46.80;;;;;;5012732;28;19933;-62
2023/06/10 08:20:32;;;;;;;;;;;22.10;46.80;;;;;;5006466;28;20336;-62
2023/06/10 08:22:59;;;;;;;;;;;22.10;46.80;;;;;;5012256;28;19921;-64
2023/06/10 08:25:25;;;;;;;;;;;22.10;47.00;;;;;;5008775;28;19925;-61
2023/06/10 08:27:52;;;;;;;;;;;22.10;47.30;;;;;;5003220;28;19936;-60
2023/06/10 08:30:19;;;;;;;;;;;22.10;47.40;;;;;;5005906;28;19925;-61
2023/06/10 08:32:47;;;;;;;;;;;22.00;47.50;;;;;;5007660;28;19922;-60
2023/06/10 08:35:14;;;;;;;;;;;22.00;47.60;;;;;;5003573;28;19933;-61
2023/06/10 08:37:42;;;;;;;;;;;22.00;47.70;;;;;;5007529;28;19936;-59
2023/06/10 08:40:09;;;;;;;;;;;22.00;47.70;;;;;;5008234;28;19933;-60
2023/06/10 08:42:39;;;;;;;;;;;22.00;47.90;;;;;;5010141;28;19922;-60
2023/06/10 08:45:07;;;;;;;;;;;22.00;47.90;;;;;;5008576;28;20003;-61
2023/06/10 08:47:35;;;;;;;;;;;22.00;48.00;;;;;;5009802;28;19925;-60
2023/06/10 08:50:04;;;;;;;;;;;21.90;48.20;;;;;;5009890;28;19932;-60
2023/06/10 08:52:33;;;;;;;;;;;22.00;48.20;;;;;;5010056;28;19921;-60
2023/06/10 08:55:01;;;;;;;;;;;21.90;48.20;;;;;;5005572;28;19992;-61
2023/06/10 08:57:27;;;;;;;;;;;21.90;48.20;;;;;;5010540;28;19925;-59
2023/06/10 08:59:54;;;;;;;;;;;21.90;48.20;;;;;;5010892;28;19922;-60
2023/06/10 09:02:21;;;;;;;;;;;21.90;48.20;;;;;;5010356;28;20031;-61
2023/06/10 09:04:49;;;;;;;;;;;21.90;48.20;;;;;;5009820;28;19925;-60
2023/06/10 09:07:17;;;;;;;;;;;21.90;48.30;;;;;;5025357;28;19940;-61
2023/06/10 09:09:44;;;;;;;;;;;21.90;48.30;;;;;;5008339;28;19934;-60
2023/06/10 09:12:11;;;;;;;;;;;21.90;48.30;;;;;;5008672;28;19926;-61
2023/06/10 09:14:38;;;;;;;;;;;21.90;48.40;;;;;;5011213;28;19971;-59
2023/06/10 09:17:05;;;;;;;;;;;21.90;48.30;;;;;;5010465;28;20057;-60
2023/06/10 09:19:31;;;;;;;;;;;21.90;48.20;;;;;;5009933;28;19925;-59
2023/06/10 09:21:58;;;;;;;;;;;21.90;48.20;;;;;;5006297;28;19926;-61
2023/06/10 09:24:26;;;;;;;;;;;21.90;48.30;;;;;;5010101;28;20310;-60
2023/06/10 09:26:56;;;;;;;;;;;21.90;48.30;;;;;;5007279;28;19957;-60
2023/06/10 09:29:22;;;;;;;;;;;22.00;48.40;;;;;;5009103;28;19956;-61
2023/06/10 09:31:49;;;;;;;;;;;21.90;48.40;;;;;;5026479;28;19922;-61
2023/06/10 09:34:16;;;;;;;;;;;22.00;48.60;;;;;;5008050;28;19929;-61
2023/06/10 09:36:43;;;;;;;;;;;21.90;48.50;;;;;;5009868;28;19928;-60
2023/06/10 09:39:14;;;;;;;;;;;22.00;48.60;;;;;;5007582;28;19972;-64
2023/06/10 09:41:43;;;;;;;;;;;22.00;48.60;;;;;;5009717;28;19921;-65
2023/06/10 09:44:10;;;;;;;;;;;22.00;48.50;;;;;;5011428;28;19925;-64
2023/06/10 09:46:37;;;;;;;;;;;22.00;48.70;;;;;;5007057;28;19944;-64
2023/06/10 09:49:04;;;;;;;;;;;22.00;48.70;;;;;;5009793;28;19932;-64
2023/06/10 09:51:31;;;;;;;;;;;22.00;48.80;;;;;;5022494;28;19922;-63
2023/06/10 09:53:58;;;;;;;;;;;22.00;48.90;;;;;;5026532;28;19925;-61
2023/06/10 09:56:33;;;;;;;;;;;22.00;48.70;;;;;;5009083;28;20015;-64
2023/06/10 09:59:01;;;;;;;;;;;22.00;48.70;;;;;;5010781;28;19921;-64
2023/06/10 10:01:28;;;;;;;;;;;22.00;48.90;;;;;;5004923;28;19925;-63
2023/06/10 10:03:55;;;;;;;;;;;22.00;49.00;;;;;;5008996;28;19921;-64
2023/06/10 10:06:21;;;;;;;;;;;22.10;49.30;;;;;;5001015;28;19928;-65
2023/06/10 10:08:49;;;;;;;;;;;22.10;49.40;;;;;;5011044;28;19971;-65
2023/06/10 10:11:17;;;;;;;;;;;22.10;49.40;;;;;;5006268;28;19921;-67
2023/06/10 10:13:45;;;;;;;;;;;22.10;49.50;;;;;;5011598;28;19925;-66
2023/06/10 10:16:15;;;;;;;;;;;22.10;49.50;;;;;;5002711;28;19929;-63
2023/06/10 10:18:43;;;;;;;;;;;22.10;49.10;;;;;;5003892;28;19926;-63
2023/06/10 10:21:12;;;;;;;;;;;22.10;49.20;;;;;;5006875;28;19965;-63
2023/06/10 10:23:41;;;;;;;;;;;22.10;49.60;;;;;;5024859;28;19926;-63
2023/06/10 10:26:10;;;;;;;;;;;22.10;49.30;;;;;;5009250;28;19980;-62
2023/06/10 10:28:39;;;;;;;;;;;22.20;49.70;;;;;;5004709;28;19925;-64
2023/06/10 10:31:08;;;;;;;;;;;22.20;49.60;;;;;;5011473;28;19934;-64
2023/06/10 10:33:37;;;;;;;;;;;22.20;49.70;;;;;;4991121;28;19922;-64
2023/06/10 10:36:04;;;;;;;;;;;22.20;49.60;;;;;;5010690;28;19925;-62
2023/06/10 10:38:32;;;;;;;;;;;22.20;49.50;;;;;;5004163;28;19921;-64
2023/06/10 10:41:02;;;;;;;;;;;22.20;49.40;;;;;;5014999;28;19921;-65
2023/06/10 10:43:30;;;;;;;;;;;22.20;49.40;;;;;;4999763;28;19928;-63
2023/06/10 10:45:59;;;;;;;;;;;22.20;49.50;;;;;;5010394;28;19922;-60
2023/06/10 10:48:26;;;;;;;;;;;22.20;49.30;;;;;;5013702;28;19925;-61
2023/06/10 10:50:58;;;;;;;;;;;22.20;49.40;;;;;;5010637;28;19921;-60
2023/06/10 10:53:25;;;;;;;;;;;22.30;50.00;;;;;;5010458;28;19949;-65
2023/06/10 10:55:59;;;;;;;;;;;22.30;50.00;;;;;;5018368;28;19925;-63
2023/06/10 10:58:27;;;;;;;;;;;22.30;50.00;;;;;;5014347;28;19928;-64
2023/06/10 11:00:54;;;;;;;;;;;22.30;50.00;;;;;;5018481;28;19929;-63
2023/06/10 11:03:21;;;;;;;;;;;22.30;50.10;;;;;;5011384;28;19948;-65
2023/06/10 11:05:48;;;;;;;;;;;22.30;50.00;;;;;;5009307;28;19972;-62
2023/06/10 11:08:24;;;;;;;;;;;22.30;50.00;;;;;;5016595;28;19979;-62
2023/06/10 11:10:52;;;;;;;;;;;22.30;50.00;;;;;;5017124;28;19964;-62
2023/06/10 11:13:20;;;;;;;;;;;22.30;50.00;;;;;;5015876;28;20368;-63
2023/06/10 11:15:47;;;;;;;;;;;22.40;49.80;;;;;;5015124;28;19934;-61
2023/06/10 11:18:20;;;;;;;;;;;22.30;50.70;;;;;;5011937;28;19983;-63
2023/06/10 11:20:57;;;;;;;;;;;22.40;50.00;;;;;;5005399;28;20161;-61
2023/06/10 11:23:42;;;;;;;;;;;22.40;50.00;;;;;;5010012;28;20376;-63
2023/06/10 11:26:14;;;;;;;;;;;22.40;49.70;;;;;;5006378;28;19948;-64
2023/06/10 11:28:41;;;;;;;;;;;22.40;49.80;;;;;;5006131;28;19936;-63
2023/06/10 11:31:08;;;;;;;;;;;22.40;49.90;;;;;;5004808;28;19922;-63
2023/06/10 11:33:35;;;;;;;;;;;22.40;49.80;;;;;;5002779;28;19976;-64
2023/06/10 11:36:01;;;;;;;;;;;22.50;50.10;;;;;;5003931;28;19925;-64
2023/06/10 11:38:28;;;;;;;;;;;22.50;50.20;;;;;;5008530;28;19983;-62
2023/06/10 11:40:55;;;;;;;;;;;22.50;50.10;;;;;;5005693;28;19996;-64
2023/06/10 11:43:23;;;;;;;;;;;22.50;50.10;;;;;;5008212;28;19922;-63
2023/06/10 11:45:54;;;;;;;;;;;22.50;50.30;;;;;;5005794;28;19928;-63
2023/06/10 11:48:21;;;;;;;;;;;22.50;50.30;;;;;;5005170;28;19976;-62
2023/06/10 11:50:47;;;;;;;;;;;22.60;50.40;;;;;;5023297;28;19922;-62
2023/06/10 11:53:14;;;;;;;;;;;22.60;50.20;;;;;;5007700;28;19930;-64
2023/06/10 11:55:42;;;;;;;;;;;22.60;50.30;;;;;;5008745;28;19921;-63
2023/06/10 11:58:12;;;;;;;;;;;22.60;50.60;;;;;;5005014;28;20062;-62
2023/06/10 12:00:46;;;;;;;;;;;22.60;50.50;;;;;;5006722;28;19922;-63
2023/06/10 12:03:13;;;;;;;;;;;22.60;50.60;;;;;;5006965;28;19922;-64
2023/06/10 12:05:40;;;;;;;;;;;22.60;50.50;;;;;;5006602;28;19925;-59
2023/06/10 12:08:10;;;;;;;;;;;22.60;50.60;;;;;;5006408;28;20086;-63
2023/06/10 12:10:40;;;;;;;;;;;22.60;50.50;;;;;;5001024;28;19988;-62
2023/06/10 12:13:07;;;;;;;;;;;22.60;50.70;;;;;;5007355;28;19925;-63
2023/06/10 12:15:34;;;;;;;;;;;22.60;50.80;;;;;;5007090;28;19929;-62
2023/06/10 12:18:02;;;;;;;;;;;22.70;51.10;;;;;;5025044;28;19944;-63
2023/06/10 12:20:29;;;;;;;;;;;22.70;51.10;;;;;;5007781;28;19984;-63
2023/06/10 12:22:57;;;;;;;;;;;22.70;51.10;;;;;;5005306;28;19972;-64
2023/06/10 12:25:25;;;;;;;;;;;22.70;51.10;;;;;;5003462;28;19921;-64
2023/06/10 12:27:52;;;;;;;;;;;22.70;51.40;;;;;;5008006;28;19964;-61
2023/06/10 12:30:19;;;;;;;;;;;22.70;51.50;;;;;;5005586;28;19951;-64
2023/06/10 12:32:46;;;;;;;;;;;22.80;51.70;;;;;;5007151;28;19929;-62
2023/06/10 12:35:17;;;;;;;;;;;22.80;51.40;;;;;;5005845;28;19979;-64
2023/06/10 12:37:44;;;;;;;;;;;22.80;51.60;;;;;;4999696;28;20299;-63
2023/06/10 12:40:11;;;;;;;;;;;22.80;51.60;;;;;;5021455;28;19968;-64
2023/06/10 12:42:38;;;;;;;;;;;22.80;51.40;;;;;;5021263;28;19921;-64
2023/06/10 12:45:07;;;;;;;;;;;22.80;51.20;;;;;;5005937;28;19925;-64
2023/06/10 12:47:34;;;;;;;;;;;22.90;51.30;;;;;;5004350;28;19925;-64
2023/06/10 12:50:01;;;;;;;;;;;22.80;51.50;;;;;;5008275;28;19988;-63
2023/06/10 12:52:29;;;;;;;;;;;22.90;51.90;;;;;;5005808;28;19964;-61
2023/06/10 12:54:56;;;;;;;;;;;22.90;51.60;;;;;;5003882;28;19933;-62
2023/06/10 12:57:23;;;;;;;;;;;22.90;51.50;;;;;;5003436;28;20360;-64
2023/06/10 12:59:52;;;;;;;;;;;22.90;51.40;;;;;;5008372;28;19944;-62
2023/06/10 13:02:19;;;;;;;;;;;22.90;51.40;;;;;;5006481;28;19944;-63
2023/06/10 13:04:46;;;;;;;;;;;22.90;51.40;;;;;;5024180;28;19932;-64
2023/06/10 13:07:12;;;;;;;;;;;22.90;51.20;;;;;;5003410;28;19926;-64
2023/06/10 13:09:41;;;;;;;;;;;22.90;51.10;;;;;;5008141;28;19945;-64
2023/06/10 13:12:08;;;;;;;;;;;23.00;51.20;;;;;;5007351;28;19976;-63
2023/06/10 13:14:34;;;;;;;;;;;23.00;51.20;;;;;;5007471;28;19929;-63
2023/06/10 13:17:01;;;;;;;;;;;23.00;51.10;;;;;;5005896;28;19922;-62
2023/06/10 13:19:28;;;;;;;;;;;23.00;51.00;;;;;;5009694;28;19972;-61
2023/06/10 13:21:55;;;;;;;;;;;23.00;50.70;;;;;;5010952;28;19975;-64
2023/06/10 13:24:21;;;;;;;;;;;23.00;50.60;;;;;;5009291;28;19980;-61
2023/06/10 13:26:50;;;;;;;;;;;23.00;50.40;;;;;;5010578;28;19930;-64
2023/06/10 13:29:16;;;;;;;;;;;23.00;50.40;;;;;;5027634;28;19929;-66
2023/06/10 13:31:43;;;;;;;;;;;23.10;50.50;;;;;;5008943;28;19926;-64
2023/06/10 13:34:10;;;;;;;;;;;23.10;50.30;;;;;;5027681;28;19921;-65
2023/06/10 13:36:37;;;;;;;;;;;23.10;50.10;;;;;;4988500;28;19975;-62
2023/06/10 13:39:04;;;;;;;;;;;23.10;50.10;;;;;;5012418;28;19932;-65
2023/06/10 13:41:30;;;;;;;;;;;23.10;50.00;;;;;;5007611;28;19926;-63
2023/06/10 13:43:58;;;;;;;;;;;23.10;50.00;;;;;;5012205;28;19926;-64
2023/06/10 13:46:26;;;;;;;;;;;23.10;50.00;;;;;;5009648;28;19931;-65
2023/06/10 13:48:53;;;;;;;;;;;23.10;50.00;;;;;;5021236;28;19921;-65
2023/06/10 13:51:19;;;;;;;;;;;23.10;50.00;;;;;;5011073;28;19972;-64
2023/06/10 13:53:46;;;;;;;;;;;23.10;49.90;;;;;;5009965;28;19976;-61
2023/06/10 13:56:14;;;;;;;;;;;23.10;49.90;;;;;;5011718;28;19928;-67
2023/06/10 13:58:42;;;;;;;;;;;23.10;49.80;;;;;;5011422;28;19921;-66
2023/06/10 14:01:10;;;;;;;;;;;23.10;49.80;;;;;;5008430;28;19928;-64
2023/06/10 14:03:37;;;;;;;;;;;23.20;49.80;;;;;;5013044;28;19925;-62
2023/06/10 14:06:04;;;;;;;;;;;23.20;49.80;;;;;;5008541;28;19926;-66
2023/06/10 14:08:31;;;;;;;;;;;23.20;49.80;;;;;;5009390;28;19922;-62
2023/06/10 14:10:58;;;;;;;;;;;23.10;49.70;;;;;;5021566;28;19933;-65
2023/06/10 14:13:25;;;;;;;;;;;23.20;49.70;;;;;;5011240;28;20020;-62
2023/06/10 14:15:53;;;;;;;;;;;23.20;49.70;;;;;;5025283;28;19930;-63
2023/06/10 14:18:21;;;;;;;;;;;23.20;49.60;;;;;;5010881;28;19939;-64